sensor_id;sensor_type;location;lat;lon;timestamp;P1;durP1;ratioP1;P2;durP2;ratioP2
50459;SDS011;36385;51.644;7.098;2022-11-20T00:00:05;29.88;;;17.92;;
50459;SDS011;36385;51.644;7.098;2022-11-20T00:02:31;28.65;;;17.83;;
50459;SDS011;36385;51.644;7.098;2022-11-20T00:04:57;28.15;;;18.33;;
50459;SDS011;36385;51.644;7.098;2022-11-20T00:07:23;28.17;;;18.90;;
50459;SDS011;36385;51.644;7.098;2022-11-20T00:09:48;26.80;;;18.23;;
50459;SDS011;36385;51.644;7.098;2022-11-20T00:12:14;28.38;;;19.05;;
50459;SDS011;36385;51.644;7.098;2022-11-20T00:14:39;28.55;;;18.48;;
50459;SDS011;36385;51.644;7.098;2022-11-20T00:17:06;31.38;;;19.98;;
50459;SDS011;36385;51.644;7.098;2022-11-20T00:19:32;32.85;;;19.73;;
50459;SDS011;36385;51.644;7.098;2022-11-20T00:21:57;27.02;;;17.50;;
50459;SDS011;36385;51.644;7.098;2022-11-20T00:24:23;29.33;;;18.05;;
50459;SDS011;36385;51.644;7.098;2022-11-20T00:26:49;28.77;;;17.95;;
50459;SDS011;36385;51.644;7.098;2022-11-20T00:29:14;27.60;;;17.92;;
50459;SDS011;36385;51.644;7.098;2022-11-20T00:31:40;28.85;;;18.35;;
50459;SDS011;36385;51.644;7.098;2022-11-20T00:34:06;31.35;;;21.42;;
50459;SDS011;36385;51.644;7.098;2022-11-20T00:36:32;33.80;;;23.77;;
50459;SDS011;36385;51.644;7.098;2022-11-20T00:38:59;30.05;;;21.17;;
50459;SDS011;36385;51.644;7.098;2022-11-20T00:41:25;32.20;;;21.25;;
50459;SDS011;36385;51.644;7.098;2022-11-20T00:43:53;30.95;;;19.45;;
50459;SDS011;36385;51.644;7.098;2022-11-20T00:46:21;28.80;;;17.98;;
50459;SDS011;36385;51.644;7.098;2022-11-20T00:48:48;29.65;;;18.42;;
50459;SDS011;36385;51.644;7.098;2022-11-20T00:51:16;29.45;;;19.17;;
50459;SDS011;36385;51.644;7.098;2022-11-20T00:53:43;30.40;;;18.67;;
50459;SDS011;36385;51.644;7.098;2022-11-20T00:56:10;27.60;;;18.30;;
50459;SDS011;36385;51.644;7.098;2022-11-20T00:58:38;27.90;;;18.50;;
50459;SDS011;36385;51.644;7.098;2022-11-20T01:01:15;30.52;;;20.05;;
50459;SDS011;36385;51.644;7.098;2022-11-20T01:03:43;31.27;;;20.10;;
50459;SDS011;36385;51.644;7.098;2022-11-20T01:06:16;33.13;;;20.25;;
50459;SDS011;36385;51.644;7.098;2022-11-20T01:08:45;26.83;;;19.08;;
50459;SDS011;36385;51.644;7.098;2022-11-20T01:11:13;29.05;;;19.17;;
50459;SDS011;36385;51.644;7.098;2022-11-20T01:13:44;29.13;;;19.00;;
50459;SDS011;36385;51.644;7.098;2022-11-20T01:16:18;27.65;;;18.60;;
50459;SDS011;36385;51.644;7.098;2022-11-20T01:18:46;30.02;;;19.65;;
50459;SDS011;36385;51.644;7.098;2022-11-20T01:21:15;30.65;;;19.50;;
50459;SDS011;36385;51.644;7.098;2022-11-20T01:23:45;30.67;;;19.92;;
50459;SDS011;36385;51.644;7.098;2022-11-20T01:26:13;31.27;;;19.40;;
50459;SDS011;36385;51.644;7.098;2022-11-20T01:28:40;29.42;;;18.77;;
50459;SDS011;36385;51.644;7.098;2022-11-20T01:31:19;28.48;;;18.75;;
50459;SDS011;36385;51.644;7.098;2022-11-20T01:33:46;28.05;;;19.00;;
50459;SDS011;36385;51.644;7.098;2022-11-20T01:36:13;29.63;;;18.35;;
50459;SDS011;36385;51.644;7.098;2022-11-20T01:38:40;28.45;;;17.95;;
50459;SDS011;36385;51.644;7.098;2022-11-20T01:41:07;25.90;;;17.80;;
50459;SDS011;36385;51.644;7.098;2022-11-20T01:43:34;26.80;;;17.83;;
50459;SDS011;36385;51.644;7.098;2022-11-20T01:48:40;28.33;;;18.08;;
50459;SDS011;36385;51.644;7.098;2022-11-20T01:51:38;26.65;;;17.58;;
50459;SDS011;36385;51.644;7.098;2022-11-20T01:54:11;27.08;;;17.55;;
50459;SDS011;36385;51.644;7.098;2022-11-20T01:56:41;28.95;;;17.70;;
50459;SDS011;36385;51.644;7.098;2022-11-20T01:59:10;26.60;;;17.38;;
50459;SDS011;36385;51.644;7.098;2022-11-20T02:01:40;26.42;;;16.67;;
50459;SDS011;36385;51.644;7.098;2022-11-20T02:04:06;27.63;;;18.23;;
50459;SDS011;36385;51.644;7.098;2022-11-20T02:09:30;27.95;;;17.67;;
50459;SDS011;36385;51.644;7.098;2022-11-20T02:11:56;26.95;;;17.92;;
50459;SDS011;36385;51.644;7.098;2022-11-20T02:14:23;28.45;;;18.08;;
50459;SDS011;36385;51.644;7.098;2022-11-20T02:16:50;29.63;;;18.90;;
50459;SDS011;36385;51.644;7.098;2022-11-20T02:19:30;29.17;;;18.45;;
50459;SDS011;36385;51.644;7.098;2022-11-20T02:24:45;27.85;;;18.23;;
50459;SDS011;36385;51.644;7.098;2022-11-20T02:27:14;27.63;;;18.02;;
50459;SDS011;36385;51.644;7.098;2022-11-20T02:29:51;27.38;;;18.13;;
50459;SDS011;36385;51.644;7.098;2022-11-20T02:32:31;27.05;;;17.92;;
50459;SDS011;36385;51.644;7.098;2022-11-20T02:35:45;28.65;;;18.30;;
50459;SDS011;36385;51.644;7.098;2022-11-20T02:37:45;29.70;;;18.80;;
50459;SDS011;36385;51.644;7.098;2022-11-20T02:40:15;29.10;;;18.90;;
50459;SDS011;36385;51.644;7.098;2022-11-20T02:42:41;29.95;;;19.98;;
50459;SDS011;36385;51.644;7.098;2022-11-20T02:45:07;29.33;;;19.38;;
50459;SDS011;36385;51.644;7.098;2022-11-20T02:47:33;29.63;;;19.58;;
50459;SDS011;36385;51.644;7.098;2022-11-20T02:49:58;30.75;;;19.40;;
50459;SDS011;36385;51.644;7.098;2022-11-20T02:52:24;31.92;;;19.88;;
50459;SDS011;36385;51.644;7.098;2022-11-20T02:54:50;30.90;;;20.63;;
50459;SDS011;36385;51.644;7.098;2022-11-20T02:57:16;31.25;;;20.02;;
50459;SDS011;36385;51.644;7.098;2022-11-20T02:59:42;30.48;;;20.67;;
50459;SDS011;36385;51.644;7.098;2022-11-20T03:02:07;29.73;;;20.25;;
50459;SDS011;36385;51.644;7.098;2022-11-20T03:04:33;30.70;;;19.55;;
50459;SDS011;36385;51.644;7.098;2022-11-20T03:06:59;31.52;;;20.67;;
50459;SDS011;36385;51.644;7.098;2022-11-20T03:09:25;31.73;;;19.67;;
50459;SDS011;36385;51.644;7.098;2022-11-20T03:11:50;30.17;;;19.63;;
50459;SDS011;36385;51.644;7.098;2022-11-20T03:14:16;30.02;;;20.48;;
50459;SDS011;36385;51.644;7.098;2022-11-20T03:16:42;30.40;;;19.10;;
50459;SDS011;36385;51.644;7.098;2022-11-20T03:19:07;28.23;;;18.48;;
50459;SDS011;36385;51.644;7.098;2022-11-20T03:21:33;27.15;;;17.00;;
50459;SDS011;36385;51.644;7.098;2022-11-20T03:24:00;28.75;;;18.55;;
50459;SDS011;36385;51.644;7.098;2022-11-20T03:26:26;26.75;;;17.92;;
50459;SDS011;36385;51.644;7.098;2022-11-20T03:28:53;30.92;;;18.88;;
50459;SDS011;36385;51.644;7.098;2022-11-20T03:31:25;28.50;;;18.75;;
50459;SDS011;36385;51.644;7.098;2022-11-20T03:33:56;29.00;;;19.30;;
50459;SDS011;36385;51.644;7.098;2022-11-20T03:36:23;28.65;;;18.88;;
50459;SDS011;36385;51.644;7.098;2022-11-20T03:38:49;29.20;;;19.77;;
50459;SDS011;36385;51.644;7.098;2022-11-20T03:41:17;30.58;;;19.20;;
50459;SDS011;36385;51.644;7.098;2022-11-20T03:43:48;29.48;;;19.67;;
50459;SDS011;36385;51.644;7.098;2022-11-20T03:46:18;28.55;;;18.90;;
50459;SDS011;36385;51.644;7.098;2022-11-20T03:48:45;30.65;;;20.08;;
50459;SDS011;36385;51.644;7.098;2022-11-20T03:53:51;31.50;;;19.90;;
50459;SDS011;36385;51.644;7.098;2022-11-20T03:56:21;30.88;;;19.95;;
50459;SDS011;36385;51.644;7.098;2022-11-20T03:58:49;30.92;;;19.98;;
50459;SDS011;36385;51.644;7.098;2022-11-20T04:01:16;30.75;;;19.63;;
50459;SDS011;36385;51.644;7.098;2022-11-20T04:03:43;29.80;;;19.95;;
50459;SDS011;36385;51.644;7.098;2022-11-20T04:09:05;30.20;;;19.70;;
50459;SDS011;36385;51.644;7.098;2022-11-20T04:11:34;28.80;;;20.13;;
50459;SDS011;36385;51.644;7.098;2022-11-20T04:14:03;31.88;;;21.10;;
50459;SDS011;36385;51.644;7.098;2022-11-20T04:16:30;32.47;;;21.50;;
50459;SDS011;36385;51.644;7.098;2022-11-20T04:18:59;30.17;;;20.30;;
50459;SDS011;36385;51.644;7.098;2022-11-20T04:21:26;31.45;;;20.98;;
50459;SDS011;36385;51.644;7.098;2022-11-20T04:23:52;34.10;;;21.33;;
50459;SDS011;36385;51.644;7.098;2022-11-20T04:26:19;32.42;;;21.42;;
50459;SDS011;36385;51.644;7.098;2022-11-20T04:28:46;33.42;;;22.20;;
50459;SDS011;36385;51.644;7.098;2022-11-20T04:31:13;32.40;;;20.70;;
50459;SDS011;36385;51.644;7.098;2022-11-20T04:33:40;31.92;;;21.27;;
50459;SDS011;36385;51.644;7.098;2022-11-20T04:36:07;34.10;;;21.55;;
50459;SDS011;36385;51.644;7.098;2022-11-20T04:38:49;31.40;;;21.30;;
50459;SDS011;36385;51.644;7.098;2022-11-20T04:41:20;30.75;;;20.85;;
50459;SDS011;36385;51.644;7.098;2022-11-20T04:43:50;30.65;;;21.48;;
50459;SDS011;36385;51.644;7.098;2022-11-20T04:46:18;30.45;;;19.88;;
50459;SDS011;36385;51.644;7.098;2022-11-20T04:48:45;30.80;;;20.55;;
50459;SDS011;36385;51.644;7.098;2022-11-20T04:51:11;29.20;;;20.77;;
50459;SDS011;36385;51.644;7.098;2022-11-20T04:53:37;32.67;;;21.27;;
50459;SDS011;36385;51.644;7.098;2022-11-20T04:56:04;32.85;;;20.63;;
50459;SDS011;36385;51.644;7.098;2022-11-20T04:58:31;30.13;;;20.42;;
50459;SDS011;36385;51.644;7.098;2022-11-20T05:01:04;33.75;;;21.48;;
50459;SDS011;36385;51.644;7.098;2022-11-20T05:03:37;31.02;;;20.45;;
50459;SDS011;36385;51.644;7.098;2022-11-20T05:06:04;31.23;;;20.55;;
50459;SDS011;36385;51.644;7.098;2022-11-20T05:08:31;30.42;;;20.05;;
50459;SDS011;36385;51.644;7.098;2022-11-20T05:11:01;30.90;;;19.58;;
50459;SDS011;36385;51.644;7.098;2022-11-20T05:13:29;30.05;;;19.63;;
50459;SDS011;36385;51.644;7.098;2022-11-20T05:15:55;31.50;;;19.50;;
50459;SDS011;36385;51.644;7.098;2022-11-20T05:18:25;29.58;;;20.05;;
50459;SDS011;36385;51.644;7.098;2022-11-20T05:20:54;30.92;;;19.77;;
50459;SDS011;36385;51.644;7.098;2022-11-20T05:23:21;32.40;;;20.27;;
50459;SDS011;36385;51.644;7.098;2022-11-20T05:25:46;30.70;;;19.77;;
50459;SDS011;36385;51.644;7.098;2022-11-20T05:28:12;30.42;;;19.65;;
50459;SDS011;36385;51.644;7.098;2022-11-20T05:30:38;31.50;;;19.58;;
50459;SDS011;36385;51.644;7.098;2022-11-20T05:33:03;30.45;;;18.83;;
50459;SDS011;36385;51.644;7.098;2022-11-20T05:35:29;29.80;;;19.08;;
50459;SDS011;36385;51.644;7.098;2022-11-20T05:37:55;29.65;;;18.30;;
50459;SDS011;36385;51.644;7.098;2022-11-20T05:40:20;31.05;;;19.42;;
50459;SDS011;36385;51.644;7.098;2022-11-20T05:42:46;29.92;;;19.83;;
50459;SDS011;36385;51.644;7.098;2022-11-20T05:45:12;29.13;;;18.80;;
50459;SDS011;36385;51.644;7.098;2022-11-20T05:47:37;29.48;;;17.80;;
50459;SDS011;36385;51.644;7.098;2022-11-20T05:50:03;26.85;;;17.20;;
50459;SDS011;36385;51.644;7.098;2022-11-20T05:52:29;30.27;;;17.48;;
50459;SDS011;36385;51.644;7.098;2022-11-20T05:54:55;29.15;;;17.48;;
50459;SDS011;36385;51.644;7.098;2022-11-20T05:57:21;28.23;;;16.92;;
50459;SDS011;36385;51.644;7.098;2022-11-20T05:59:47;27.60;;;16.30;;
50459;SDS011;36385;51.644;7.098;2022-11-20T06:02:13;29.45;;;17.42;;
50459;SDS011;36385;51.644;7.098;2022-11-20T06:04:38;28.70;;;17.15;;
50459;SDS011;36385;51.644;7.098;2022-11-20T06:07:04;29.40;;;17.35;;
50459;SDS011;36385;51.644;7.098;2022-11-20T06:09:31;31.17;;;18.58;;
50459;SDS011;36385;51.644;7.098;2022-11-20T06:11:57;27.73;;;18.10;;
50459;SDS011;36385;51.644;7.098;2022-11-20T06:14:22;30.40;;;18.38;;
50459;SDS011;36385;51.644;7.098;2022-11-20T06:16:48;29.42;;;17.23;;
50459;SDS011;36385;51.644;7.098;2022-11-20T06:19:14;27.88;;;16.88;;
50459;SDS011;36385;51.644;7.098;2022-11-20T06:21:40;28.27;;;17.30;;
50459;SDS011;36385;51.644;7.098;2022-11-20T06:24:06;31.27;;;19.02;;
50459;SDS011;36385;51.644;7.098;2022-11-20T06:26:33;30.02;;;18.45;;
50459;SDS011;36385;51.644;7.098;2022-11-20T06:28:59;28.02;;;18.25;;
50459;SDS011;36385;51.644;7.098;2022-11-20T06:31:25;32.42;;;18.63;;
50459;SDS011;36385;51.644;7.098;2022-11-20T06:33:51;30.05;;;17.77;;
50459;SDS011;36385;51.644;7.098;2022-11-20T06:36:18;32.72;;;19.00;;
50459;SDS011;36385;51.644;7.098;2022-11-20T06:38:46;32.25;;;18.52;;
50459;SDS011;36385;51.644;7.098;2022-11-20T06:41:13;28.05;;;16.88;;
50459;SDS011;36385;51.644;7.098;2022-11-20T06:43:44;30.98;;;17.88;;
50459;SDS011;36385;51.644;7.098;2022-11-20T06:46:10;29.13;;;17.75;;
50459;SDS011;36385;51.644;7.098;2022-11-20T06:48:37;29.30;;;17.30;;
50459;SDS011;36385;51.644;7.098;2022-11-20T06:51:03;31.85;;;18.75;;
50459;SDS011;36385;51.644;7.098;2022-11-20T06:53:30;29.85;;;18.27;;
50459;SDS011;36385;51.644;7.098;2022-11-20T06:55:56;29.92;;;18.23;;
50459;SDS011;36385;51.644;7.098;2022-11-20T06:58:28;30.30;;;18.45;;
50459;SDS011;36385;51.644;7.098;2022-11-20T07:01:02;32.45;;;18.95;;
50459;SDS011;36385;51.644;7.098;2022-11-20T07:03:29;31.45;;;18.13;;
50459;SDS011;36385;51.644;7.098;2022-11-20T07:05:56;34.30;;;19.83;;
50459;SDS011;36385;51.644;7.098;2022-11-20T07:08:22;38.88;;;22.90;;
50459;SDS011;36385;51.644;7.098;2022-11-20T07:10:48;38.22;;;22.52;;
50459;SDS011;36385;51.644;7.098;2022-11-20T07:13:14;35.97;;;22.42;;
50459;SDS011;36385;51.644;7.098;2022-11-20T07:15:39;42.30;;;26.30;;
50459;SDS011;36385;51.644;7.098;2022-11-20T07:18:05;40.20;;;24.17;;
50459;SDS011;36385;51.644;7.098;2022-11-20T07:20:31;40.70;;;24.50;;
50459;SDS011;36385;51.644;7.098;2022-11-20T07:22:57;40.35;;;22.80;;
50459;SDS011;36385;51.644;7.098;2022-11-20T07:25:23;37.50;;;22.38;;
50459;SDS011;36385;51.644;7.098;2022-11-20T07:27:50;35.95;;;20.90;;
50459;SDS011;36385;51.644;7.098;2022-11-20T07:30:16;35.35;;;21.02;;
50459;SDS011;36385;51.644;7.098;2022-11-20T07:32:41;33.17;;;19.00;;
50459;SDS011;36385;51.644;7.098;2022-11-20T07:35:07;31.80;;;18.73;;
50459;SDS011;36385;51.644;7.098;2022-11-20T07:37:34;32.10;;;18.83;;
50459;SDS011;36385;51.644;7.098;2022-11-20T07:39:59;30.90;;;18.63;;
50459;SDS011;36385;51.644;7.098;2022-11-20T07:42:25;30.95;;;18.45;;
50459;SDS011;36385;51.644;7.098;2022-11-20T07:44:51;32.08;;;18.55;;
50459;SDS011;36385;51.644;7.098;2022-11-20T07:47:16;31.65;;;18.65;;
50459;SDS011;36385;51.644;7.098;2022-11-20T07:49:42;29.67;;;18.42;;
50459;SDS011;36385;51.644;7.098;2022-11-20T07:52:08;31.58;;;17.92;;
50459;SDS011;36385;51.644;7.098;2022-11-20T07:54:33;28.90;;;18.35;;
50459;SDS011;36385;51.644;7.098;2022-11-20T07:56:59;31.25;;;17.90;;
50459;SDS011;36385;51.644;7.098;2022-11-20T07:59:24;34.70;;;19.23;;
50459;SDS011;36385;51.644;7.098;2022-11-20T08:01:50;31.90;;;19.45;;
50459;SDS011;36385;51.644;7.098;2022-11-20T08:04:16;34.97;;;19.90;;
50459;SDS011;36385;51.644;7.098;2022-11-20T08:06:42;39.70;;;23.40;;
50459;SDS011;36385;51.644;7.098;2022-11-20T08:09:07;39.63;;;23.88;;
50459;SDS011;36385;51.644;7.098;2022-11-20T08:11:33;37.88;;;23.65;;
50459;SDS011;36385;51.644;7.098;2022-11-20T08:14:17;33.83;;;21.38;;
50459;SDS011;36385;51.644;7.098;2022-11-20T08:16:44;35.00;;;21.63;;
50459;SDS011;36385;51.644;7.098;2022-11-20T08:19:12;34.45;;;21.98;;
50459;SDS011;36385;51.644;7.098;2022-11-20T08:21:39;34.58;;;21.38;;
50459;SDS011;36385;51.644;7.098;2022-11-20T08:24:05;31.30;;;19.00;;
50459;SDS011;36385;51.644;7.098;2022-11-20T08:26:32;33.47;;;20.63;;
50459;SDS011;36385;51.644;7.098;2022-11-20T08:28:59;31.85;;;19.52;;
50459;SDS011;36385;51.644;7.098;2022-11-20T08:31:25;31.40;;;19.20;;
50459;SDS011;36385;51.644;7.098;2022-11-20T08:33:51;32.03;;;20.00;;
50459;SDS011;36385;51.644;7.098;2022-11-20T08:36:18;33.33;;;20.13;;
50459;SDS011;36385;51.644;7.098;2022-11-20T08:38:48;36.15;;;22.35;;
50459;SDS011;36385;51.644;7.098;2022-11-20T08:41:14;35.63;;;22.80;;
50459;SDS011;36385;51.644;7.098;2022-11-20T08:43:50;40.85;;;23.98;;
50459;SDS011;36385;51.644;7.098;2022-11-20T08:46:17;38.63;;;24.33;;
50459;SDS011;36385;51.644;7.098;2022-11-20T08:48:43;39.90;;;24.63;;
50459;SDS011;36385;51.644;7.098;2022-11-20T08:51:09;42.33;;;23.98;;
50459;SDS011;36385;51.644;7.098;2022-11-20T08:53:35;41.22;;;24.50;;
50459;SDS011;36385;51.644;7.098;2022-11-20T08:56:01;42.42;;;26.10;;
50459;SDS011;36385;51.644;7.098;2022-11-20T08:58:27;41.25;;;27.17;;
50459;SDS011;36385;51.644;7.098;2022-11-20T09:00:52;40.92;;;26.13;;
50459;SDS011;36385;51.644;7.098;2022-11-20T09:03:18;43.00;;;27.10;;
50459;SDS011;36385;51.644;7.098;2022-11-20T09:05:44;41.55;;;25.45;;
50459;SDS011;36385;51.644;7.098;2022-11-20T09:08:10;39.88;;;24.70;;
50459;SDS011;36385;51.644;7.098;2022-11-20T09:10:36;40.00;;;25.05;;
50459;SDS011;36385;51.644;7.098;2022-11-20T09:13:04;40.70;;;25.02;;
50459;SDS011;36385;51.644;7.098;2022-11-20T09:15:30;41.92;;;27.08;;
50459;SDS011;36385;51.644;7.098;2022-11-20T09:17:57;43.60;;;26.50;;
50459;SDS011;36385;51.644;7.098;2022-11-20T09:20:25;39.15;;;24.05;;
50459;SDS011;36385;51.644;7.098;2022-11-20T09:22:51;39.97;;;23.38;;
50459;SDS011;36385;51.644;7.098;2022-11-20T09:25:17;41.95;;;24.90;;
50459;SDS011;36385;51.644;7.098;2022-11-20T09:27:43;41.22;;;25.27;;
50459;SDS011;36385;51.644;7.098;2022-11-20T09:30:11;41.28;;;25.90;;
50459;SDS011;36385;51.644;7.098;2022-11-20T09:32:41;40.60;;;24.63;;
50459;SDS011;36385;51.644;7.098;2022-11-20T09:35:07;43.03;;;25.42;;
50459;SDS011;36385;51.644;7.098;2022-11-20T09:37:34;43.88;;;25.75;;
50459;SDS011;36385;51.644;7.098;2022-11-20T09:40:00;47.03;;;27.25;;
50459;SDS011;36385;51.644;7.098;2022-11-20T09:42:29;40.80;;;26.40;;
50459;SDS011;36385;51.644;7.098;2022-11-20T09:47:52;48.15;;;28.08;;
50459;SDS011;36385;51.644;7.098;2022-11-20T09:50:31;45.10;;;27.33;;
50459;SDS011;36385;51.644;7.098;2022-11-20T09:56:00;47.00;;;27.85;;
50459;SDS011;36385;51.644;7.098;2022-11-20T09:58:35;48.10;;;29.30;;
50459;SDS011;36385;51.644;7.098;2022-11-20T10:01:49;47.85;;;27.88;;
50459;SDS011;36385;51.644;7.098;2022-11-20T10:09:20;47.88;;;26.50;;
50459;SDS011;36385;51.644;7.098;2022-11-20T10:30:20;40.80;;;24.65;;
50459;SDS011;36385;51.644;7.098;2022-11-20T10:32:58;41.28;;;25.15;;
50459;SDS011;36385;51.644;7.098;2022-11-20T10:38:02;38.72;;;24.20;;
50459;SDS011;36385;51.644;7.098;2022-11-20T10:43:03;39.72;;;23.95;;
50459;SDS011;36385;51.644;7.098;2022-11-20T10:48:10;38.50;;;23.25;;
50459;SDS011;36385;51.644;7.098;2022-11-20T10:50:43;37.78;;;23.17;;
50459;SDS011;36385;51.644;7.098;2022-11-20T10:56:29;36.85;;;21.20;;
50459;SDS011;36385;51.644;7.098;2022-11-20T10:59:04;38.15;;;22.60;;
50459;SDS011;36385;51.644;7.098;2022-11-20T11:01:38;35.95;;;21.42;;
50459;SDS011;36385;51.644;7.098;2022-11-20T11:04:11;37.72;;;22.77;;
50459;SDS011;36385;51.644;7.098;2022-11-20T11:06:48;39.50;;;22.40;;
50459;SDS011;36385;51.644;7.098;2022-11-20T11:09:20;35.08;;;22.65;;
50459;SDS011;36385;51.644;7.098;2022-11-20T11:11:52;35.58;;;22.27;;
50459;SDS011;36385;51.644;7.098;2022-11-20T11:14:18;35.47;;;21.20;;
50459;SDS011;36385;51.644;7.098;2022-11-20T11:16:51;34.20;;;21.23;;
50459;SDS011;36385;51.644;7.098;2022-11-20T11:19:21;36.63;;;20.38;;
50459;SDS011;36385;51.644;7.098;2022-11-20T11:21:47;31.92;;;19.83;;
50459;SDS011;36385;51.644;7.098;2022-11-20T11:24:23;34.15;;;20.50;;
50459;SDS011;36385;51.644;7.098;2022-11-20T11:27:01;33.72;;;20.23;;
50459;SDS011;36385;51.644;7.098;2022-11-20T11:29:32;30.13;;;18.02;;
50459;SDS011;36385;51.644;7.098;2022-11-20T11:32:08;30.17;;;18.33;;
50459;SDS011;36385;51.644;7.098;2022-11-20T11:34:37;32.58;;;18.85;;
50459;SDS011;36385;51.644;7.098;2022-11-20T11:37:03;30.05;;;18.58;;
50459;SDS011;36385;51.644;7.098;2022-11-20T11:39:31;33.47;;;19.95;;
50459;SDS011;36385;51.644;7.098;2022-11-20T11:41:59;32.97;;;19.90;;
50459;SDS011;36385;51.644;7.098;2022-11-20T11:47:23;26.67;;;17.85;;
50459;SDS011;36385;51.644;7.098;2022-11-20T11:50:00;29.27;;;17.98;;
50459;SDS011;36385;51.644;7.098;2022-11-20T11:55:25;27.83;;;16.42;;
50459;SDS011;36385;51.644;7.098;2022-11-20T12:01:13;31.65;;;19.30;;
50459;SDS011;36385;51.644;7.098;2022-11-20T12:06:55;24.67;;;15.48;;
50459;SDS011;36385;51.644;7.098;2022-11-20T12:09:38;23.40;;;15.30;;
50459;SDS011;36385;51.644;7.098;2022-11-20T12:12:18;25.63;;;16.00;;
50459;SDS011;36385;51.644;7.098;2022-11-20T12:14:49;25.58;;;16.15;;
50459;SDS011;36385;51.644;7.098;2022-11-20T12:17:19;25.42;;;15.35;;
50459;SDS011;36385;51.644;7.098;2022-11-20T12:19:45;31.90;;;19.15;;
50459;SDS011;36385;51.644;7.098;2022-11-20T12:30:16;26.75;;;16.35;;
50459;SDS011;36385;51.644;7.098;2022-11-20T12:38:22;27.52;;;17.08;;
50459;SDS011;36385;51.644;7.098;2022-11-20T12:47:10;77.80;;;42.05;;
50459;SDS011;36385;51.644;7.098;2022-11-20T12:49:43;43.67;;;24.95;;
50459;SDS011;36385;51.644;7.098;2022-11-20T12:52:37;48.17;;;27.52;;
50459;SDS011;36385;51.644;7.098;2022-11-20T12:55:40;92.80;;;47.70;;
50459;SDS011;36385;51.644;7.098;2022-11-20T13:00:50;46.03;;;27.52;;
50459;SDS011;36385;51.644;7.098;2022-11-20T13:03:43;32.83;;;19.70;;
50459;SDS011;36385;51.644;7.098;2022-11-20T13:06:18;29.88;;;18.17;;
50459;SDS011;36385;51.644;7.098;2022-11-20T13:09:02;31.35;;;18.65;;
50459;SDS011;36385;51.644;7.098;2022-11-20T13:17:16;32.90;;;18.77;;
50459;SDS011;36385;51.644;7.098;2022-11-20T13:19:57;32.30;;;19.02;;
50459;SDS011;36385;51.644;7.098;2022-11-20T13:22:27;32.40;;;18.40;;
50459;SDS011;36385;51.644;7.098;2022-11-20T13:24:55;32.47;;;18.35;;
50459;SDS011;36385;51.644;7.098;2022-11-20T13:27:21;33.50;;;18.65;;
50459;SDS011;36385;51.644;7.098;2022-11-20T13:35:23;31.45;;;16.85;;
50459;SDS011;36385;51.644;7.098;2022-11-20T13:38:13;31.80;;;17.33;;
50459;SDS011;36385;51.644;7.098;2022-11-20T13:40:53;29.48;;;16.08;;
50459;SDS011;36385;51.644;7.098;2022-11-20T13:43:39;32.38;;;16.98;;
50459;SDS011;36385;51.644;7.098;2022-11-20T13:46:07;35.05;;;18.90;;
50459;SDS011;36385;51.644;7.098;2022-11-20T13:48:41;31.38;;;16.50;;
50459;SDS011;36385;51.644;7.098;2022-11-20T13:51:26;29.27;;;16.33;;
50459;SDS011;36385;51.644;7.098;2022-11-20T14:02:20;30.77;;;16.05;;
50459;SDS011;36385;51.644;7.098;2022-11-20T14:04:48;28.35;;;15.48;;
50459;SDS011;36385;51.644;7.098;2022-11-20T14:07:16;30.30;;;17.05;;
50459;SDS011;36385;51.644;7.098;2022-11-20T14:09:52;30.55;;;16.70;;
50459;SDS011;36385;51.644;7.098;2022-11-20T14:12:21;28.90;;;16.48;;
50459;SDS011;36385;51.644;7.098;2022-11-20T14:14:49;32.50;;;17.23;;
50459;SDS011;36385;51.644;7.098;2022-11-20T14:17:18;31.65;;;16.02;;
50459;SDS011;36385;51.644;7.098;2022-11-20T14:19:46;31.48;;;17.02;;
50459;SDS011;36385;51.644;7.098;2022-11-20T14:22:18;32.55;;;18.10;;
50459;SDS011;36385;51.644;7.098;2022-11-20T14:27:15;31.35;;;17.67;;
50459;SDS011;36385;51.644;7.098;2022-11-20T14:29:46;85.88;;;36.60;;
50459;SDS011;36385;51.644;7.098;2022-11-20T14:32:20;34.70;;;17.13;;
50459;SDS011;36385;51.644;7.098;2022-11-20T14:34:51;36.75;;;21.27;;
50459;SDS011;36385;51.644;7.098;2022-11-20T14:37:18;29.90;;;15.63;;
50459;SDS011;36385;51.644;7.098;2022-11-20T14:42:23;27.73;;;15.40;;
50459;SDS011;36385;51.644;7.098;2022-11-20T14:44:55;34.22;;;18.08;;
50459;SDS011;36385;51.644;7.098;2022-11-20T14:47:23;30.70;;;16.42;;
50459;SDS011;36385;51.644;7.098;2022-11-20T14:49:55;40.45;;;21.48;;
50459;SDS011;36385;51.644;7.098;2022-11-20T14:52:25;31.42;;;17.08;;
50459;SDS011;36385;51.644;7.098;2022-11-20T14:54:53;31.17;;;16.10;;
50459;SDS011;36385;51.644;7.098;2022-11-20T15:00:05;29.95;;;15.63;;
50459;SDS011;36385;51.644;7.098;2022-11-20T15:02:31;33.10;;;15.93;;
50459;SDS011;36385;51.644;7.098;2022-11-20T15:04:58;30.88;;;17.50;;
50459;SDS011;36385;51.644;7.098;2022-11-20T15:07:30;28.23;;;15.70;;
50459;SDS011;36385;51.644;7.098;2022-11-20T15:09:59;31.95;;;16.58;;
50459;SDS011;36385;51.644;7.098;2022-11-20T15:12:34;28.15;;;16.13;;
50459;SDS011;36385;51.644;7.098;2022-11-20T15:15:02;28.85;;;15.98;;
50459;SDS011;36385;51.644;7.098;2022-11-20T15:17:30;29.55;;;16.02;;
50459;SDS011;36385;51.644;7.098;2022-11-20T15:19:57;27.85;;;14.70;;
50459;SDS011;36385;51.644;7.098;2022-11-20T15:22:24;32.33;;;16.60;;
50459;SDS011;36385;51.644;7.098;2022-11-20T15:24:50;26.10;;;14.93;;
50459;SDS011;36385;51.644;7.098;2022-11-20T15:27:16;30.15;;;15.77;;
50459;SDS011;36385;51.644;7.098;2022-11-20T15:29:41;27.60;;;15.48;;
50459;SDS011;36385;51.644;7.098;2022-11-20T15:32:08;31.02;;;16.08;;
50459;SDS011;36385;51.644;7.098;2022-11-20T15:34:34;30.63;;;16.15;;
50459;SDS011;36385;51.644;7.098;2022-11-20T15:36:59;30.85;;;15.73;;
50459;SDS011;36385;51.644;7.098;2022-11-20T15:39:25;28.77;;;15.48;;
50459;SDS011;36385;51.644;7.098;2022-11-20T15:41:51;29.65;;;15.40;;
50459;SDS011;36385;51.644;7.098;2022-11-20T15:44:16;30.88;;;16.13;;
50459;SDS011;36385;51.644;7.098;2022-11-20T15:46:42;32.88;;;16.48;;
50459;SDS011;36385;51.644;7.098;2022-11-20T15:49:13;31.08;;;16.13;;
50459;SDS011;36385;51.644;7.098;2022-11-20T15:51:44;32.50;;;16.90;;
50459;SDS011;36385;51.644;7.098;2022-11-20T15:54:13;31.02;;;15.65;;
50459;SDS011;36385;51.644;7.098;2022-11-20T15:56:42;33.47;;;17.05;;
50459;SDS011;36385;51.644;7.098;2022-11-20T15:59:08;31.35;;;16.42;;
50459;SDS011;36385;51.644;7.098;2022-11-20T16:01:33;30.23;;;16.40;;
50459;SDS011;36385;51.644;7.098;2022-11-20T16:04:00;33.45;;;17.55;;
50459;SDS011;36385;51.644;7.098;2022-11-20T16:06:26;32.45;;;17.35;;
50459;SDS011;36385;51.644;7.098;2022-11-20T16:08:51;33.22;;;17.55;;
50459;SDS011;36385;51.644;7.098;2022-11-20T16:11:17;34.95;;;17.70;;
50459;SDS011;36385;51.644;7.098;2022-11-20T16:13:43;33.28;;;17.67;;
50459;SDS011;36385;51.644;7.098;2022-11-20T16:16:29;36.85;;;18.05;;
50459;SDS011;36385;51.644;7.098;2022-11-20T16:18:57;33.22;;;18.38;;
50459;SDS011;36385;51.644;7.098;2022-11-20T16:21:24;31.60;;;17.15;;
50459;SDS011;36385;51.644;7.098;2022-11-20T16:23:56;34.53;;;18.20;;
50459;SDS011;36385;51.644;7.098;2022-11-20T16:26:27;35.72;;;18.60;;